sensor_id;sensor_type;location;lat;lon;timestamp;temperature;humidity
26655;DHT22;14278;50.784;4.630;2022-09-09T00:06:21;16.00;99.90
26655;DHT22;14278;50.784;4.630;2022-09-09T00:09:01;15.70;99.90
26655;DHT22;14278;50.784;4.630;2022-09-09T00:11:41;15.80;99.90
26655;DHT22;14278;50.784;4.630;2022-09-09T00:14:17;16.10;99.90
26655;DHT22;14278;50.784;4.630;2022-09-09T00:16:47;16.40;99.90
26655;DHT22;14278;50.784;4.630;2022-09-09T00:22:19;16.60;99.90
26655;DHT22;14278;50.784;4.630;2022-09-09T00:24:52;16.60;99.90
26655;DHT22;14278;50.784;4.630;2022-09-09T00:32:43;16.30;99.90
26655;DHT22;14278;50.784;4.630;2022-09-09T00:35:25;16.50;99.90
26655;DHT22;14278;50.784;4.630;2022-09-09T00:37:56;16.60;99.90
26655;DHT22;14278;50.784;4.630;2022-09-09T00:40:35;16.50;99.90
26655;DHT22;14278;50.784;4.630;2022-09-09T00:57:18;16.30;99.90
26655;DHT22;14278;50.784;4.630;2022-09-09T00:59:52;16.40;99.90
26655;DHT22;14278;50.784;4.630;2022-09-09T01:02:30;16.20;99.90
26655;DHT22;14278;50.784;4.630;2022-09-09T01:05:07;16.30;99.90
26655;DHT22;14278;50.784;4.630;2022-09-09T01:07:35;16.30;99.90
26655;DHT22;14278;50.784;4.630;2022-09-09T01:10:08;16.20;99.90
26655;DHT22;14278;50.784;4.630;2022-09-09T01:12:42;16.00;99.90
26655;DHT22;14278;50.784;4.630;2022-09-09T01:15:13;15.90;99.90
26655;DHT22;14278;50.784;4.630;2022-09-09T01:18:00;15.70;99.90
26655;DHT22;14278;50.784;4.630;2022-09-09T01:20:43;15.80;99.90
26655;DHT22;14278;50.784;4.630;2022-09-09T01:23:15;16.00;99.90
26655;DHT22;14278;50.784;4.630;2022-09-09T01:26:01;16.10;99.90
26655;DHT22;14278;50.784;4.630;2022-09-09T01:28:31;16.20;99.90
26655;DHT22;14278;50.784;4.630;2022-09-09T01:30:59;16.40;99.90
26655;DHT22;14278;50.784;4.630;2022-09-09T01:33:25;16.40;99.90
26655;DHT22;14278;50.784;4.630;2022-09-09T01:38:38;16.30;99.90
26655;DHT22;14278;50.784;4.630;2022-09-09T01:41:05;16.50;99.90
26655;DHT22;14278;50.784;4.630;2022-09-09T01:43:31;16.40;99.90
26655;DHT22;14278;50.784;4.630;2022-09-09T01:46:00;16.50;99.90
26655;DHT22;14278;50.784;4.630;2022-09-09T01:48:27;16.50;99.90
26655;DHT22;14278;50.784;4.630;2022-09-09T01:50:53;16.60;99.90
26655;DHT22;14278;50.784;4.630;2022-09-09T01:53:21;16.40;99.90
26655;DHT22;14278;50.784;4.630;2022-09-09T01:59:10;16.60;99.90
26655;DHT22;14278;50.784;4.630;2022-09-09T02:04:31;16.60;99.90
26655;DHT22;14278;50.784;4.630;2022-09-09T02:07:01;16.60;99.90
26655;DHT22;14278;50.784;4.630;2022-09-09T02:09:30;16.70;99.90
26655;DHT22;14278;50.784;4.630;2022-09-09T02:12:08;16.70;99.90
26655;DHT22;14278;50.784;4.630;2022-09-09T02:14:39;16.50;99.90
26655;DHT22;14278;50.784;4.630;2022-09-09T02:17:10;16.60;99.90
26655;DHT22;14278;50.784;4.630;2022-09-09T02:19:46;16.50;99.90
26655;DHT22;14278;50.784;4.630;2022-09-09T02:22:17;16.40;99.90
26655;DHT22;14278;50.784;4.630;2022-09-09T02:24:44;16.40;99.90
26655;DHT22;14278;50.784;4.630;2022-09-09T02:27:12;16.40;99.90
26655;DHT22;14278;50.784;4.630;2022-09-09T02:29:42;16.30;99.90
26655;DHT22;14278;50.784;4.630;2022-09-09T02:32:21;16.40;99.90
26655;DHT22;14278;50.784;4.630;2022-09-09T02:34:50;16.30;99.90
26655;DHT22;14278;50.784;4.630;2022-09-09T02:37:20;16.30;99.90
26655;DHT22;14278;50.784;4.630;2022-09-09T02:39:47;16.40;99.90
26655;DHT22;14278;50.784;4.630;2022-09-09T02:42:13;16.30;99.90
26655;DHT22;14278;50.784;4.630;2022-09-09T02:44:41;16.50;99.90
26655;DHT22;14278;50.784;4.630;2022-09-09T02:47:25;16.40;99.90
26655;DHT22;14278;50.784;4.630;2022-09-09T02:50:12;16.40;99.90
26655;DHT22;14278;50.784;4.630;2022-09-09T02:55:43;16.30;99.90
26655;DHT22;14278;50.784;4.630;2022-09-09T02:58:14;16.40;99.90
26655;DHT22;14278;50.784;4.630;2022-09-09T03:00:47;16.50;99.90
26655;DHT22;14278;50.784;4.630;2022-09-09T03:03:13;16.40;99.90
26655;DHT22;14278;50.784;4.630;2022-09-09T03:05:38;16.30;99.90
26655;DHT22;14278;50.784;4.630;2022-09-09T03:08:05;16.30;99.90
26655;DHT22;14278;50.784;4.630;2022-09-09T03:10:32;16.20;99.90
26655;DHT22;14278;50.784;4.630;2022-09-09T03:12:58;16.20;99.90
26655;DHT22;14278;50.784;4.630;2022-09-09T03:15:24;16.20;99.90
26655;DHT22;14278;50.784;4.630;2022-09-09T03:17:54;16.30;99.90
26655;DHT22;14278;50.784;4.630;2022-09-09T03:20:21;16.20;99.90
26655;DHT22;14278;50.784;4.630;2022-09-09T03:22:46;16.20;99.90
26655;DHT22;14278;50.784;4.630;2022-09-09T03:25:12;16.20;99.90
26655;DHT22;14278;50.784;4.630;2022-09-09T03:27:38;16.40;99.90
26655;DHT22;14278;50.784;4.630;2022-09-09T03:30:04;16.40;99.90
26655;DHT22;14278;50.784;4.630;2022-09-09T03:32:31;16.40;99.90
26655;DHT22;14278;50.784;4.630;2022-09-09T03:34:57;16.40;99.90
26655;DHT22;14278;50.784;4.630;2022-09-09T03:37:22;16.40;99.90
26655;DHT22;14278;50.784;4.630;2022-09-09T03:39:48;16.30;99.90
26655;DHT22;14278;50.784;4.630;2022-09-09T03:42:15;16.30;99.90
26655;DHT22;14278;50.784;4.630;2022-09-09T03:44:45;16.20;99.90
26655;DHT22;14278;50.784;4.630;2022-09-09T03:47:16;16.30;99.90
26655;DHT22;14278;50.784;4.630;2022-09-09T03:49:42;16.30;99.90
26655;DHT22;14278;50.784;4.630;2022-09-09T03:52:09;16.30;99.90
26655;DHT22;14278;50.784;4.630;2022-09-09T03:54:35;16.30;99.90
26655;DHT22;14278;50.784;4.630;2022-09-09T03:57:02;16.20;99.90
26655;DHT22;14278;50.784;4.630;2022-09-09T03:59:27;16.10;99.90
26655;DHT22;14278;50.784;4.630;2022-09-09T04:01:54;16.00;99.90
26655;DHT22;14278;50.784;4.630;2022-09-09T04:04:20;16.00;99.90
26655;DHT22;14278;50.784;4.630;2022-09-09T04:06:46;15.90;99.90
26655;DHT22;14278;50.784;4.630;2022-09-09T04:09:14;15.90;99.90
26655;DHT22;14278;50.784;4.630;2022-09-09T04:11:40;16.00;99.90
26655;DHT22;14278;50.784;4.630;2022-09-09T04:14:06;16.10;99.90
26655;DHT22;14278;50.784;4.630;2022-09-09T04:16:33;15.90;99.90
26655;DHT22;14278;50.784;4.630;2022-09-09T04:18:59;16.00;99.90
26655;DHT22;14278;50.784;4.630;2022-09-09T04:21:26;16.10;99.90
26655;DHT22;14278;50.784;4.630;2022-09-09T04:23:51;16.10;99.90
26655;DHT22;14278;50.784;4.630;2022-09-09T04:26:17;16.10;99.90
26655;DHT22;14278;50.784;4.630;2022-09-09T04:28:43;16.10;99.90
26655;DHT22;14278;50.784;4.630;2022-09-09T04:31:14;16.10;99.90
26655;DHT22;14278;50.784;4.630;2022-09-09T04:33:41;16.20;99.90
26655;DHT22;14278;50.784;4.630;2022-09-09T04:36:07;16.00;99.90
26655;DHT22;14278;50.784;4.630;2022-09-09T04:38:33;15.90;99.90
26655;DHT22;14278;50.784;4.630;2022-09-09T04:40:59;16.00;99.90
26655;DHT22;14278;50.784;4.630;2022-09-09T04:43:25;16.00;99.90
26655;DHT22;14278;50.784;4.630;2022-09-09T04:45:51;15.90;99.90
26655;DHT22;14278;50.784;4.630;2022-09-09T04:48:17;15.90;99.90
26655;DHT22;14278;50.784;4.630;2022-09-09T04:50:43;15.90;99.90
26655;DHT22;14278;50.784;4.630;2022-09-09T04:53:09;15.90;99.90
26655;DHT22;14278;50.784;4.630;2022-09-09T04:55:35;15.90;99.90
26655;DHT22;14278;50.784;4.630;2022-09-09T04:58:07;15.80;99.90
26655;DHT22;14278;50.784;4.630;2022-09-09T05:00:35;15.70;99.90
26655;DHT22;14278;50.784;4.630;2022-09-09T05:03:05;15.70;99.90
26655;DHT22;14278;50.784;4.630;2022-09-09T05:05:32;15.80;99.90
26655;DHT22;14278;50.784;4.630;2022-09-09T05:08:06;15.80;99.90
26655;DHT22;14278;50.784;4.630;2022-09-09T05:10:33;15.90;99.90
26655;DHT22;14278;50.784;4.630;2022-09-09T05:12:59;15.80;99.90
26655;DHT22;14278;50.784;4.630;2022-09-09T05:15:25;15.70;99.90
26655;DHT22;14278;50.784;4.630;2022-09-09T05:17:51;15.90;99.90
26655;DHT22;14278;50.784;4.630;2022-09-09T05:20:18;15.90;99.90
26655;DHT22;14278;50.784;4.630;2022-09-09T05:22:44;16.00;99.90
26655;DHT22;14278;50.784;4.630;2022-09-09T05:25:10;16.00;99.90
26655;DHT22;14278;50.784;4.630;2022-09-09T05:27:36;16.20;99.90
26655;DHT22;14278;50.784;4.630;2022-09-09T05:30:02;16.10;99.90
26655;DHT22;14278;50.784;4.630;2022-09-09T05:32:30;16.10;99.90
26655;DHT22;14278;50.784;4.630;2022-09-09T05:35:01;16.30;99.90
26655;DHT22;14278;50.784;4.630;2022-09-09T05:37:27;16.20;99.90
26655;DHT22;14278;50.784;4.630;2022-09-09T05:39:57;16.40;99.90
26655;DHT22;14278;50.784;4.630;2022-09-09T05:42:31;16.30;99.90
26655;DHT22;14278;50.784;4.630;2022-09-09T05:44:57;16.50;99.90
26655;DHT22;14278;50.784;4.630;2022-09-09T05:47:24;16.40;99.90
26655;DHT22;14278;50.784;4.630;2022-09-09T05:49:50;16.40;99.90
26655;DHT22;14278;50.784;4.630;2022-09-09T05:52:16;16.40;99.90
26655;DHT22;14278;50.784;4.630;2022-09-09T05:54:42;16.50;99.90
26655;DHT22;14278;50.784;4.630;2022-09-09T05:57:08;16.60;99.90
26655;DHT22;14278;50.784;4.630;2022-09-09T05:59:35;16.80;99.90
26655;DHT22;14278;50.784;4.630;2022-09-09T06:02:01;16.80;99.90
26655;DHT22;14278;50.784;4.630;2022-09-09T06:04:26;16.80;99.90
26655;DHT22;14278;50.784;4.630;2022-09-09T06:06:52;17.00;99.90
26655;DHT22;14278;50.784;4.630;2022-09-09T06:09:18;17.10;99.90
26655;DHT22;14278;50.784;4.630;2022-09-09T06:11:44;17.00;99.90
26655;DHT22;14278;50.784;4.630;2022-09-09T06:14:11;17.10;99.90
26655;DHT22;14278;50.784;4.630;2022-09-09T06:16:36;16.90;99.90
26655;DHT22;14278;50.784;4.630;2022-09-09T06:19:09;16.80;99.90
26655;DHT22;14278;50.784;4.630;2022-09-09T06:21:36;16.90;99.90
26655;DHT22;14278;50.784;4.630;2022-09-09T06:24:03;16.90;99.90
26655;DHT22;14278;50.784;4.630;2022-09-09T06:26:32;17.00;99.90
26655;DHT22;14278;50.784;4.630;2022-09-09T06:28:59;17.00;99.90
26655;DHT22;14278;50.784;4.630;2022-09-09T06:31:28;16.90;99.90
26655;DHT22;14278;50.784;4.630;2022-09-09T06:33:58;17.00;99.90
26655;DHT22;14278;50.784;4.630;2022-09-09T06:36:32;17.20;99.90
26655;DHT22;14278;50.784;4.630;2022-09-09T06:38:59;17.80;99.90
26655;DHT22;14278;50.784;4.630;2022-09-09T06:41:27;18.50;99.90
26655;DHT22;14278;50.784;4.630;2022-09-09T06:43:54;18.80;99.90
26655;DHT22;14278;50.784;4.630;2022-09-09T06:46:26;18.90;99.90
26655;DHT22;14278;50.784;4.630;2022-09-09T06:48:57;18.80;99.90
26655;DHT22;14278;50.784;4.630;2022-09-09T06:51:30;18.70;99.90
26655;DHT22;14278;50.784;4.630;2022-09-09T06:53:58;18.40;99.90
26655;DHT22;14278;50.784;4.630;2022-09-09T06:56:26;17.90;99.90
26655;DHT22;14278;50.784;4.630;2022-09-09T06:58:55;17.80;99.90
26655;DHT22;14278;50.784;4.630;2022-09-09T07:01:26;17.80;99.90
26655;DHT22;14278;50.784;4.630;2022-09-09T07:03:54;17.70;99.90
26655;DHT22;14278;50.784;4.630;2022-09-09T07:06:31;17.60;99.90
26655;DHT22;14278;50.784;4.630;2022-09-09T07:09:02;17.50;99.90
26655;DHT22;14278;50.784;4.630;2022-09-09T07:11:31;17.50;99.90
26655;DHT22;14278;50.784;4.630;2022-09-09T07:13:59;17.50;99.90
26655;DHT22;14278;50.784;4.630;2022-09-09T07:16:25;17.40;99.90
26655;DHT22;14278;50.784;4.630;2022-09-09T07:18:52;17.60;99.90
26655;DHT22;14278;50.784;4.630;2022-09-09T07:21:24;18.00;99.90
26655;DHT22;14278;50.784;4.630;2022-09-09T07:23:50;18.10;99.90
26655;DHT22;14278;50.784;4.630;2022-09-09T07:26:18;18.20;99.90
26655;DHT22;14278;50.784;4.630;2022-09-09T07:28:47;18.30;99.90
26655;DHT22;14278;50.784;4.630;2022-09-09T07:31:18;18.10;99.90
26655;DHT22;14278;50.784;4.630;2022-09-09T07:33:45;17.90;99.90
26655;DHT22;14278;50.784;4.630;2022-09-09T07:36:14;17.80;99.90
26655;DHT22;14278;50.784;4.630;2022-09-09T07:38:43;17.70;99.90
26655;DHT22;14278;50.784;4.630;2022-09-09T07:41:13;17.70;99.90
26655;DHT22;14278;50.784;4.630;2022-09-09T07:43:41;17.50;99.90
26655;DHT22;14278;50.784;4.630;2022-09-09T07:46:08;17.50;99.90
26655;DHT22;14278;50.784;4.630;2022-09-09T07:48:34;17.60;99.90
26655;DHT22;14278;50.784;4.630;2022-09-09T07:51:23;17.60;99.90
26655;DHT22;14278;50.784;4.630;2022-09-09T07:53:52;17.70;99.90
26655;DHT22;14278;50.784;4.630;2022-09-09T07:56:18;17.80;99.90
26655;DHT22;14278;50.784;4.630;2022-09-09T07:58:47;18.00;99.90
26655;DHT22;14278;50.784;4.630;2022-09-09T08:01:18;17.90;99.90
26655;DHT22;14278;50.784;4.630;2022-09-09T08:03:46;18.00;99.90
26655;DHT22;14278;50.784;4.630;2022-09-09T08:06:13;18.00;99.90
26655;DHT22;14278;50.784;4.630;2022-09-09T08:08:40;18.30;99.90
26655;DHT22;14278;50.784;4.630;2022-09-09T08:11:12;18.20;99.90
26655;DHT22;14278;50.784;4.630;2022-09-09T08:13:40;18.10;99.90
26655;DHT22;14278;50.784;4.630;2022-09-09T08:16:12;18.20;99.90
26655;DHT22;14278;50.784;4.630;2022-09-09T08:18:38;18.20;99.90
26655;DHT22;14278;50.784;4.630;2022-09-09T08:21:20;18.40;99.90
26655;DHT22;14278;50.784;4.630;2022-09-09T08:23:47;18.80;99.90
26655;DHT22;14278;50.784;4.630;2022-09-09T08:26:18;18.80;99.90
26655;DHT22;14278;50.784;4.630;2022-09-09T08:28:53;18.90;99.90
26655;DHT22;14278;50.784;4.630;2022-09-09T08:31:27;18.80;99.90
26655;DHT22;14278;50.784;4.630;2022-09-09T08:33:54;18.70;99.90
26655;DHT22;14278;50.784;4.630;2022-09-09T08:36:22;18.60;99.90
26655;DHT22;14278;50.784;4.630;2022-09-09T08:38:50;18.40;99.90
26655;DHT22;14278;50.784;4.630;2022-09-09T08:52:37;18.00;99.90
26655;DHT22;14278;50.784;4.630;2022-09-09T08:57:55;17.70;99.90
26655;DHT22;14278;50.784;4.630;2022-09-09T09:00:22;17.10;99.90
26655;DHT22;14278;50.784;4.630;2022-09-09T09:03:10;17.10;99.90
26655;DHT22;14278;50.784;4.630;2022-09-09T09:05:48;17.10;99.90
26655;DHT22;14278;50.784;4.630;2022-09-09T09:11:11;17.00;99.90
26655;DHT22;14278;50.784;4.630;2022-09-09T09:14:00;16.90;99.90
26655;DHT22;14278;50.784;4.630;2022-09-09T09:19:16;16.80;99.90
26655;DHT22;14278;50.784;4.630;2022-09-09T09:27:32;16.70;99.90
26655;DHT22;14278;50.784;4.630;2022-09-09T09:30:01;16.70;99.90
26655;DHT22;14278;50.784;4.630;2022-09-09T09:32:31;16.80;99.90
26655;DHT22;14278;50.784;4.630;2022-09-09T09:34:59;16.70;99.90
26655;DHT22;14278;50.784;4.630;2022-09-09T09:37:34;16.70;99.90
26655;DHT22;14278;50.784;4.630;2022-09-09T09:40:12;16.90;99.90
26655;DHT22;14278;50.784;4.630;2022-09-09T09:42:52;17.00;99.90
26655;DHT22;14278;50.784;4.630;2022-09-09T09:45:34;17.00;99.90
26655;DHT22;14278;50.784;4.630;2022-09-09T09:48:05;17.10;99.90
26655;DHT22;14278;50.784;4.630;2022-09-09T09:50:32;17.20;99.90
26655;DHT22;14278;50.784;4.630;2022-09-09T09:53:01;17.20;99.90
26655;DHT22;14278;50.784;4.630;2022-09-09T09:55:30;17.40;99.90
26655;DHT22;14278;50.784;4.630;2022-09-09T09:58:04;17.50;99.90
26655;DHT22;14278;50.784;4.630;2022-09-09T10:00:30;17.30;99.90
26655;DHT22;14278;50.784;4.630;2022-09-09T10:02:59;17.30;99.90
26655;DHT22;14278;50.784;4.630;2022-09-09T10:05:30;17.20;99.90
26655;DHT22;14278;50.784;4.630;2022-09-09T10:08:05;17.20;99.90
26655;DHT22;14278;50.784;4.630;2022-09-09T10:10:55;17.20;99.90
26655;DHT22;14278;50.784;4.630;2022-09-09T10:13:29;17.20;99.90
26655;DHT22;14278;50.784;4.630;2022-09-09T10:19:02;17.20;99.90
26655;DHT22;14278;50.784;4.630;2022-09-09T10:35:09;16.90;99.90
26655;DHT22;14278;50.784;4.630;2022-09-09T10:37:49;17.00;99.90
26655;DHT22;14278;50.784;4.630;2022-09-09T10:46:01;17.30;99.90
26655;DHT22;14278;50.784;4.630;2022-09-09T10:56:16;17.90;99.90
26655;DHT22;14278;50.784;4.630;2022-09-09T11:01:21;18.20;99.90
26655;DHT22;14278;50.784;4.630;2022-09-09T11:03:57;18.50;99.90
26655;DHT22;14278;50.784;4.630;2022-09-09T11:06:31;18.50;99.90
26655;DHT22;14278;50.784;4.630;2022-09-09T11:09:00;18.60;99.90
26655;DHT22;14278;50.784;4.630;2022-09-09T11:11:41;18.70;99.90
26655;DHT22;14278;50.784;4.630;2022-09-09T11:16:35;18.50;99.90
26655;DHT22;14278;50.784;4.630;2022-09-09T11:19:34;18.40;99.90
26655;DHT22;14278;50.784;4.630;2022-09-09T11:24:55;18.70;99.90
26655;DHT22;14278;50.784;4.630;2022-09-09T11:30:22;18.60;99.90
26655;DHT22;14278;50.784;4.630;2022-09-09T11:38:21;19.00;99.90
26655;DHT22;14278;50.784;4.630;2022-09-09T11:40:48;18.90;99.90
26655;DHT22;14278;50.784;4.630;2022-09-09T11:43:44;19.00;99.90
26655;DHT22;14278;50.784;4.630;2022-09-09T11:46:13;19.40;99.90
26655;DHT22;14278;50.784;4.630;2022-09-09T11:49:02;19.90;99.90
26655;DHT22;14278;50.784;4.630;2022-09-09T11:51:31;20.10;99.90
26655;DHT22;14278;50.784;4.630;2022-09-09T11:54:44;19.70;99.90
26655;DHT22;14278;50.784;4.630;2022-09-09T11:56:50;19.50;99.90
26655;DHT22;14278;50.784;4.630;2022-09-09T11:59:32;19.40;99.90
26655;DHT22;14278;50.784;4.630;2022-09-09T12:01:58;19.40;99.90
26655;DHT22;14278;50.784;4.630;2022-09-09T12:14:58;19.30;99.90
26655;DHT22;14278;50.784;4.630;2022-09-09T12:17:27;19.30;99.90
26655;DHT22;14278;50.784;4.630;2022-09-09T12:25:18;19.60;99.90
26655;DHT22;14278;50.784;4.630;2022-09-09T12:28:09;19.70;99.90
26655;DHT22;14278;50.784;4.630;2022-09-09T12:30:42;20.00;99.90
26655;DHT22;14278;50.784;4.630;2022-09-09T12:33:16;20.20;99.90
26655;DHT22;14278;50.784;4.630;2022-09-09T12:35:43;20.50;99.90
26655;DHT22;14278;50.784;4.630;2022-09-09T12:38:15;20.50;99.90
26655;DHT22;14278;50.784;4.630;2022-09-09T12:40:56;20.30;99.90
26655;DHT22;14278;50.784;4.630;2022-09-09T12:43:25;20.10;99.90
26655;DHT22;14278;50.784;4.630;2022-09-09T12:45:58;19.80;99.90
26655;DHT22;14278;50.784;4.630;2022-09-09T12:48:37;19.80;99.90
26655;DHT22;14278;50.784;4.630;2022-09-09T12:51:16;19.60;99.90
26655;DHT22;14278;50.784;4.630;2022-09-09T12:53:44;19.60;99.90
26655;DHT22;14278;50.784;4.630;2022-09-09T12:56:19;19.70;99.90
26655;DHT22;14278;50.784;4.630;2022-09-09T12:58:47;19.70;99.90
26655;DHT22;14278;50.784;4.630;2022-09-09T13:01:23;19.80;99.90
26655;DHT22;14278;50.784;4.630;2022-09-09T13:03:49;19.60;99.90
26655;DHT22;14278;50.784;4.630;2022-09-09T13:06:22;19.50;99.90
26655;DHT22;14278;50.784;4.630;2022-09-09T13:08:49;19.70;99.90
26655;DHT22;14278;50.784;4.630;2022-09-09T13:11:21;20.00;99.90
26655;DHT22;14278;50.784;4.630;2022-09-09T13:13:54;20.10;99.90
26655;DHT22;14278;50.784;4.630;2022-09-09T13:16:34;20.20;99.90
26655;DHT22;14278;50.784;4.630;2022-09-09T13:19:15;20.00;99.90
26655;DHT22;14278;50.784;4.630;2022-09-09T13:21:42;19.90;99.90
26655;DHT22;14278;50.784;4.630;2022-09-09T13:24:29;20.00;99.90
26655;DHT22;14278;50.784;4.630;2022-09-09T13:26:57;19.90;99.90
26655;DHT22;14278;50.784;4.630;2022-09-09T13:29:23;19.90;99.90
26655;DHT22;14278;50.784;4.630;2022-09-09T13:31:51;19.80;99.90
26655;DHT22;14278;50.784;4.630;2022-09-09T13:34:30;19.70;99.90
26655;DHT22;14278;50.784;4.630;2022-09-09T13:37:03;19.60;99.90
26655;DHT22;14278;50.784;4.630;2022-09-09T13:39:33;19.90;99.90
26655;DHT22;14278;50.784;4.630;2022-09-09T13:42:00;19.90;99.90
26655;DHT22;14278;50.784;4.630;2022-09-09T13:44:34;20.20;99.90
26655;DHT22;14278;50.784;4.630;2022-09-09T13:49:34;20.40;99.90
26655;DHT22;14278;50.784;4.630;2022-09-09T13:52:11;20.50;99.90
26655;DHT22;14278;50.784;4.630;2022-09-09T13:54:39;20.50;99.90
26655;DHT22;14278;50.784;4.630;2022-09-09T13:57:11;20.70;99.90
26655;DHT22;14278;50.784;4.630;2022-09-09T13:59:39;20.90;99.90
26655;DHT22;14278;50.784;4.630;2022-09-09T14:02:06;21.10;99.90
26655;DHT22;14278;50.784;4.630;2022-09-09T14:04:32;21.20;99.90
26655;DHT22;14278;50.784;4.630;2022-09-09T14:07:01;21.10;99.90
26655;DHT22;14278;50.784;4.630;2022-09-09T14:09:27;20.90;99.90
26655;DHT22;14278;50.784;4.630;2022-09-09T14:11:53;20.70;99.90
26655;DHT22;14278;50.784;4.630;2022-09-09T14:14:20;20.60;99.90
26655;DHT22;14278;50.784;4.630;2022-09-09T14:16:46;20.50;99.90
26655;DHT22;14278;50.784;4.630;2022-09-09T14:19:12;20.20;99.90
26655;DHT22;14278;50.784;4.630;2022-09-09T14:21:38;20.10;99.90
26655;DHT22;14278;50.784;4.630;2022-09-09T14:24:05;20.20;99.90
26655;DHT22;14278;50.784;4.630;2022-09-09T14:26:31;20.20;99.90
26655;DHT22;14278;50.784;4.630;2022-09-09T14:28:57;20.20;99.90
26655;DHT22;14278;50.784;4.630;2022-09-09T14:31:24;20.60;99.90
26655;DHT22;14278;50.784;4.630;2022-09-09T14:33:50;20.70;99.90
26655;DHT22;14278;50.784;4.630;2022-09-09T14:36:18;20.70;99.90
26655;DHT22;14278;50.784;4.630;2022-09-09T14:38:44;20.70;99.90
26655;DHT22;14278;50.784;4.630;2022-09-09T14:41:11;20.50;99.90
26655;DHT22;14278;50.784;4.630;2022-09-09T14:43:39;20.50;99.90
26655;DHT22;14278;50.784;4.630;2022-09-09T14:46:08;20.60;99.90
26655;DHT22;14278;50.784;4.630;2022-09-09T14:48:35;20.80;99.90
26655;DHT22;14278;50.784;4.630;2022-09-09T14:51:11;20.90;99.90
26655;DHT22;14278;50.784;4.630;2022-09-09T14:53:39;21.00;99.90
26655;DHT22;14278;50.784;4.630;2022-09-09T14:56:15;20.70;99.90
26655;DHT22;14278;50.784;4.630;2022-09-09T14:58:41;20.30;99.90
26655;DHT22;14278;50.784;4.630;2022-09-09T15:01:13;20.50;99.90
26655;DHT22;14278;50.784;4.630;2022-09-09T15:03:41;20.50;99.90
26655;DHT22;14278;50.784;4.630;2022-09-09T15:06:08;20.50;99.90
26655;DHT22;14278;50.784;4.630;2022-09-09T15:08:38;20.70;99.90
26655;DHT22;14278;50.784;4.630;2022-09-09T15:11:05;20.90;99.90
26655;DHT22;14278;50.784;4.630;2022-09-09T15:13:34;20.90;99.90
26655;DHT22;14278;50.784;4.630;2022-09-09T15:16:14;20.80;99.90
26655;DHT22;14278;50.784;4.630;2022-09-09T15:18:41;20.50;99.90
26655;DHT22;14278;50.784;4.630;2022-09-09T15:21:15;20.10;99.90
26655;DHT22;14278;50.784;4.630;2022-09-09T15:23:42;20.00;99.90
26655;DHT22;14278;50.784;4.630;2022-09-09T15:26:09;19.90;99.90
26655;DHT22;14278;50.784;4.630;2022-09-09T15:28:37;19.80;99.90
26655;DHT22;14278;50.784;4.630;2022-09-09T15:31:14;19.80;99.90
26655;DHT22;14278;50.784;4.630;2022-09-09T15:33:40;19.80;99.90
26655;DHT22;14278;50.784;4.630;2022-09-09T15:36:18;20.00;99.90
26655;DHT22;14278;50.784;4.630;2022-09-09T15:38:44;20.00;99.90
26655;DHT22;14278;50.784;4.630;2022-09-09T15:41:11;20.10;99.90
26655;DHT22;14278;50.784;4.630;2022-09-09T15:43:38;20.20;99.90
26655;DHT22;14278;50.784;4.630;2022-09-09T15:48:50;20.30;99.90
26655;DHT22;14278;50.784;4.630;2022-09-09T15:51:16;20.40;99.90
26655;DHT22;14278;50.784;4.630;2022-09-09T15:53:43;20.50;99.90
26655;DHT22;14278;50.784;4.630;2022-09-09T15:56:10;20.50;99.90
26655;DHT22;14278;50.784;4.630;2022-09-09T15:58:36;20.50;99.90
26655;DHT22;14278;50.784;4.630;2022-09-09T16:01:06;20.40;99.90
26655;DHT22;14278;50.784;4.630;2022-09-09T16:03:42;20.30;99.90
26655;DHT22;14278;50.784;4.630;2022-09-09T16:06:11;20.20;99.90
26655;DHT22;14278;50.784;4.630;2022-09-09T16:08:42;20.20;99.90
26655;DHT22;14278;50.784;4.630;2022-09-09T16:11:10;20.30;99.90
26655;DHT22;14278;50.784;4.630;2022-09-09T16:13:39;20.30;99.90
26655;DHT22;14278;50.784;4.630;2022-09-09T16:16:06;20.50;99.90
26655;DHT22;14278;50.784;4.630;2022-09-09T16:18:37;20.50;99.90
26655;DHT22;14278;50.784;4.630;2022-09-09T16:21:04;20.30;99.90
26655;DHT22;14278;50.784;4.630;2022-09-09T16:23:31;20.50;99.90
26655;DHT22;14278;50.784;4.630;2022-09-09T16:25:58;20.30;99.90
26655;DHT22;14278;50.784;4.630;2022-09-09T16:28:24;20.20;99.90
26655;DHT22;14278;50.784;4.630;2022-09-09T16:30:50;20.40;99.90
26655;DHT22;14278;50.784;4.630;2022-09-09T16:33:17;20.20;99.90
26655;DHT22;14278;50.784;4.630;2022-09-09T16:35:43;20.10;99.90
26655;DHT22;14278;50.784;4.630;2022-09-09T16:38:10;20.00;99.90
26655;DHT22;14278;50.784;4.630;2022-09-09T16:40:36;20.00;99.90
26655;DHT22;14278;50.784;4.630;2022-09-09T16:43:06;20.00;99.90
26655;DHT22;14278;50.784;4.630;2022-09-09T16:45:32;20.00;99.90
26655;DHT22;14278;50.784;4.630;2022-09-09T16:47:59;20.20;99.90
26655;DHT22;14278;50.784;4.630;2022-09-09T16:50:26;20.10;99.90
26655;DHT22;14278;50.784;4.630;2022-09-09T16:52:52;19.90;99.90
26655;DHT22;14278;50.784;4.630;2022-09-09T16:55:18;19.80;99.90
26655;DHT22;14278;50.784;4.630;2022-09-09T16:57:46;19.40;99.90
26655;DHT22;14278;50.784;4.630;2022-09-09T17:00:15;18.90;99.90
26655;DHT22;14278;50.784;4.630;2022-09-09T17:02:43;18.70;99.90
26655;DHT22;14278;50.784;4.630;2022-09-09T17:05:08;18.50;99.90
26655;DHT22;14278;50.784;4.630;2022-09-09T17:07:35;18.40;99.90
26655;DHT22;14278;50.784;4.630;2022-09-09T17:10:01;18.40;99.90
26655;DHT22;14278;50.784;4.630;2022-09-09T17:12:27;18.50;99.90
26655;DHT22;14278;50.784;4.630;2022-09-09T17:14:53;18.50;99.90
26655;DHT22;14278;50.784;4.630;2022-09-09T17:17:21;18.50;99.90
26655;DHT22;14278;50.784;4.630;2022-09-09T17:19:47;18.60;99.90
26655;DHT22;14278;50.784;4.630;2022-09-09T17:22:13;18.80;99.90
26655;DHT22;14278;50.784;4.630;2022-09-09T17:24:39;18.90;99.90
26655;DHT22;14278;50.784;4.630;2022-09-09T17:27:06;19.10;99.90
26655;DHT22;14278;50.784;4.630;2022-09-09T17:29:32;19.20;99.90
26655;DHT22;14278;50.784;4.630;2022-09-09T17:32:01;18.80;99.90
26655;DHT22;14278;50.784;4.630;2022-09-09T17:34:27;18.70;99.90
26655;DHT22;14278;50.784;4.630;2022-09-09T17:36:53;18.80;99.90
26655;DHT22;14278;50.784;4.630;2022-09-09T17:39:19;18.60;99.90
26655;DHT22;14278;50.784;4.630;2022-09-09T17:41:45;18.20;99.90
26655;DHT22;14278;50.784;4.630;2022-09-09T17:44:12;18.60;99.90
26655;DHT22;14278;50.784;4.630;2022-09-09T17:46:39;18.60;99.90
26655;DHT22;14278;50.784;4.630;2022-09-09T17:49:09;18.50;99.90
26655;DHT22;14278;50.784;4.630;2022-09-09T17:51:36;18.40;99.90
26655;DHT22;14278;50.784;4.630;2022-09-09T17:54:06;18.40;99.90
26655;DHT22;14278;50.784;4.630;2022-09-09T17:56:36;18.30;99.90
26655;DHT22;14278;50.784;4.630;2022-09-09T17:59:05;18.10;99.90